sensor_id;sensor_type;location;lat;lon;timestamp;pressure;altitude;pressure_sealevel;temperature;humidity
64292;BME280;50628;51.008;13.658;2023-07-20T00:00:18;99356.41;;;17.06;100.00
64292;BME280;50628;51.008;13.658;2023-07-20T00:05:21;99355.59;;;17.06;100.00
64292;BME280;50628;51.008;13.658;2023-07-20T00:10:25;99355.47;;;16.99;100.00
64292;BME280;50628;51.008;13.658;2023-07-20T00:15:27;99338.59;;;16.94;100.00
64292;BME280;50628;51.008;13.658;2023-07-20T00:20:30;99332.50;;;16.93;100.00
64292;BME280;50628;51.008;13.658;2023-07-20T00:25:32;99346.19;;;16.89;100.00
64292;BME280;50628;51.008;13.658;2023-07-20T00:30:34;99348.91;;;16.95;100.00
64292;BME280;50628;51.008;13.658;2023-07-20T00:35:38;99344.19;;;16.91;100.00
64292;BME280;50628;51.008;13.658;2023-07-20T00:40:41;99337.50;;;16.80;100.00
64292;BME280;50628;51.008;13.658;2023-07-20T00:45:43;99338.47;;;16.87;100.00
64292;BME280;50628;51.008;13.658;2023-07-20T00:50:47;99339.28;;;16.87;100.00
64292;BME280;50628;51.008;13.658;2023-07-20T00:55:49;99347.03;;;16.73;100.00
64292;BME280;50628;51.008;13.658;2023-07-20T01:00:51;99355.41;;;16.76;100.00
64292;BME280;50628;51.008;13.658;2023-07-20T01:06:00;99338.47;;;16.87;100.00
64292;BME280;50628;51.008;13.658;2023-07-20T01:11:14;99345.81;;;16.92;100.00
64292;BME280;50628;51.008;13.658;2023-07-20T01:16:17;99345.03;;;16.83;100.00
64292;BME280;50628;51.008;13.658;2023-07-20T01:21:26;99345.31;;;16.96;100.00
64292;BME280;50628;51.008;13.658;2023-07-20T01:26:45;99361.81;;;16.82;100.00
64292;BME280;50628;51.008;13.658;2023-07-20T01:31:57;99362.81;;;16.73;100.00
64292;BME280;50628;51.008;13.658;2023-07-20T01:36:59;99349.50;;;16.82;100.00
64292;BME280;50628;51.008;13.658;2023-07-20T01:42:02;99354.06;;;16.89;100.00
64292;BME280;50628;51.008;13.658;2023-07-20T01:47:06;99363.31;;;16.76;100.00
64292;BME280;50628;51.008;13.658;2023-07-20T01:52:08;99362.66;;;16.74;100.00
64292;BME280;50628;51.008;13.658;2023-07-20T01:57:10;99359.44;;;16.64;100.00
64292;BME280;50628;51.008;13.658;2023-07-20T02:02:13;99358.00;;;16.53;100.00
64292;BME280;50628;51.008;13.658;2023-07-20T02:07:15;99358.63;;;16.55;100.00
64292;BME280;50628;51.008;13.658;2023-07-20T02:12:17;99368.50;;;16.53;100.00
64292;BME280;50628;51.008;13.658;2023-07-20T02:17:20;99367.88;;;16.51;100.00
64292;BME280;50628;51.008;13.658;2023-07-20T02:22:22;99360.53;;;16.38;100.00
64292;BME280;50628;51.008;13.658;2023-07-20T02:27:24;99362.38;;;16.21;100.00
64292;BME280;50628;51.008;13.658;2023-07-20T02:32:36;99362.69;;;16.27;100.00
64292;BME280;50628;51.008;13.658;2023-07-20T02:37:38;99371.88;;;16.31;100.00
64292;BME280;50628;51.008;13.658;2023-07-20T02:42:40;99372.69;;;16.31;100.00
64292;BME280;50628;51.008;13.658;2023-07-20T02:47:43;99372.84;;;16.30;100.00
64292;BME280;50628;51.008;13.658;2023-07-20T02:52:46;99386.03;;;16.21;100.00
64292;BME280;50628;51.008;13.658;2023-07-20T02:57:47;99392.78;;;16.16;100.00
64292;BME280;50628;51.008;13.658;2023-07-20T03:02:51;99396.91;;;16.10;100.00
64292;BME280;50628;51.008;13.658;2023-07-20T03:07:56;99407.88;;;16.14;100.00
64292;BME280;50628;51.008;13.658;2023-07-20T03:12:58;99401.16;;;16.11;100.00
64292;BME280;50628;51.008;13.658;2023-07-20T03:18:01;99408.34;;;16.17;100.00
64292;BME280;50628;51.008;13.658;2023-07-20T03:23:04;99411.44;;;16.29;100.00
64292;BME280;50628;51.008;13.658;2023-07-20T03:28:06;99407.34;;;16.27;100.00
64292;BME280;50628;51.008;13.658;2023-07-20T03:33:10;99415.06;;;16.28;100.00
64292;BME280;50628;51.008;13.658;2023-07-20T03:38:11;99408.34;;;16.26;100.00
64292;BME280;50628;51.008;13.658;2023-07-20T03:43:13;99404.88;;;16.25;100.00
64292;BME280;50628;51.008;13.658;2023-07-20T03:48:17;99404.41;;;16.21;100.00
64292;BME280;50628;51.008;13.658;2023-07-20T03:53:19;99402.09;;;16.27;100.00
64292;BME280;50628;51.008;13.658;2023-07-20T03:58:21;99399.59;;;16.41;100.00
64292;BME280;50628;51.008;13.658;2023-07-20T04:03:25;99403.84;;;16.42;100.00
64292;BME280;50628;51.008;13.658;2023-07-20T04:08:27;99410.75;;;16.43;100.00
64292;BME280;50628;51.008;13.658;2023-07-20T04:13:29;99400.84;;;16.54;100.00
64292;BME280;50628;51.008;13.658;2023-07-20T04:18:35;99404.44;;;16.53;100.00
64292;BME280;50628;51.008;13.658;2023-07-20T04:23:37;99400.84;;;16.54;100.00
64292;BME280;50628;51.008;13.658;2023-07-20T04:28:39;99397.84;;;16.65;100.00
64292;BME280;50628;51.008;13.658;2023-07-20T04:33:45;99409.31;;;16.72;100.00
64292;BME280;50628;51.008;13.658;2023-07-20T04:38:47;99404.13;;;16.56;100.00
64292;BME280;50628;51.008;13.658;2023-07-20T04:43:53;99406.06;;;16.62;100.00
64292;BME280;50628;51.008;13.658;2023-07-20T04:49:06;99411.06;;;16.49;100.00
64292;BME280;50628;51.008;13.658;2023-07-20T04:54:12;99412.63;;;16.58;100.00
64292;BME280;50628;51.008;13.658;2023-07-20T04:59:15;99419.00;;;16.72;100.00
64292;BME280;50628;51.008;13.658;2023-07-20T05:04:19;99424.09;;;16.81;100.00
64292;BME280;50628;51.008;13.658;2023-07-20T05:09:21;99412.53;;;16.91;100.00
64292;BME280;50628;51.008;13.658;2023-07-20T05:14:23;99411.63;;;17.06;100.00
64292;BME280;50628;51.008;13.658;2023-07-20T05:19:28;99408.66;;;17.09;100.00
64292;BME280;50628;51.008;13.658;2023-07-20T05:24:29;99400.19;;;17.22;100.00
64292;BME280;50628;51.008;13.658;2023-07-20T05:29:31;99397.09;;;17.42;100.00
64292;BME280;50628;51.008;13.658;2023-07-20T05:34:35;99384.38;;;17.45;100.00
64292;BME280;50628;51.008;13.658;2023-07-20T05:39:36;99396.56;;;17.46;100.00
64292;BME280;50628;51.008;13.658;2023-07-20T05:44:39;99394.97;;;17.60;100.00
64292;BME280;50628;51.008;13.658;2023-07-20T05:49:42;99397.88;;;17.65;100.00
64292;BME280;50628;51.008;13.658;2023-07-20T05:54:44;99406.50;;;17.59;100.00
64292;BME280;50628;51.008;13.658;2023-07-20T05:59:46;99413.63;;;17.50;100.00
64292;BME280;50628;51.008;13.658;2023-07-20T06:04:49;99419.13;;;17.79;100.00
64292;BME280;50628;51.008;13.658;2023-07-20T06:09:51;99414.44;;;17.74;100.00
64292;BME280;50628;51.008;13.658;2023-07-20T06:14:54;99411.41;;;17.62;100.00
64292;BME280;50628;51.008;13.658;2023-07-20T06:19:57;99423.34;;;17.50;100.00
64292;BME280;50628;51.008;13.658;2023-07-20T06:24:59;99442.31;;;17.14;100.00
64292;BME280;50628;51.008;13.658;2023-07-20T06:30:01;99452.09;;;16.50;100.00
64292;BME280;50628;51.008;13.658;2023-07-20T06:35:05;99468.09;;;16.15;100.00
64292;BME280;50628;51.008;13.658;2023-07-20T06:40:08;99476.44;;;16.19;100.00
64292;BME280;50628;51.008;13.658;2023-07-20T06:45:10;99484.81;;;16.22;100.00
64292;BME280;50628;51.008;13.658;2023-07-20T06:50:13;99480.84;;;16.35;100.00
64292;BME280;50628;51.008;13.658;2023-07-20T06:55:15;99484.47;;;16.34;100.00
64292;BME280;50628;51.008;13.658;2023-07-20T07:00:18;99489.69;;;16.42;100.00
64292;BME280;50628;51.008;13.658;2023-07-20T07:05:21;99487.88;;;16.59;100.00
64292;BME280;50628;51.008;13.658;2023-07-20T07:10:23;99483.06;;;16.71;100.00
64292;BME280;50628;51.008;13.658;2023-07-20T07:15:25;99482.63;;;16.98;100.00
64292;BME280;50628;51.008;13.658;2023-07-20T07:20:29;99494.56;;;16.78;100.00
64292;BME280;50628;51.008;13.658;2023-07-20T07:25:31;99491.25;;;16.84;100.00
64292;BME280;50628;51.008;13.658;2023-07-20T07:30:33;99489.91;;;16.96;100.00
64292;BME280;50628;51.008;13.658;2023-07-20T07:35:36;99490.97;;;17.10;100.00
64292;BME280;50628;51.008;13.658;2023-07-20T07:40:38;99481.41;;;17.17;100.00
64292;BME280;50628;51.008;13.658;2023-07-20T07:45:40;99474.47;;;17.24;100.00
64292;BME280;50628;51.008;13.658;2023-07-20T07:50:44;99473.47;;;17.25;100.00
64292;BME280;50628;51.008;13.658;2023-07-20T07:55:45;99475.00;;;17.20;100.00
64292;BME280;50628;51.008;13.658;2023-07-20T08:00:48;99470.72;;;17.19;100.00
64292;BME280;50628;51.008;13.658;2023-07-20T08:05:53;99477.31;;;17.15;100.00
64292;BME280;50628;51.008;13.658;2023-07-20T08:10:55;99474.63;;;17.54;100.00
64292;BME280;50628;51.008;13.658;2023-07-20T08:15:57;99466.97;;;17.90;100.00
64292;BME280;50628;51.008;13.658;2023-07-20T08:21:01;99466.16;;;17.90;100.00
64292;BME280;50628;51.008;13.658;2023-07-20T08:26:03;99457.00;;;17.78;100.00
64292;BME280;50628;51.008;13.658;2023-07-20T08:31:06;99458.78;;;17.85;100.00
64292;BME280;50628;51.008;13.658;2023-07-20T08:36:09;99463.06;;;18.01;100.00
64292;BME280;50628;51.008;13.658;2023-07-20T08:41:11;99459.31;;;18.48;100.00
64292;BME280;50628;51.008;13.658;2023-07-20T08:46:14;99452.13;;;18.27;100.00
64292;BME280;50628;51.008;13.658;2023-07-20T08:51:19;99449.78;;;18.47;100.00
64292;BME280;50628;51.008;13.658;2023-07-20T08:56:22;99453.97;;;18.86;100.00
64292;BME280;50628;51.008;13.658;2023-07-20T09:01:26;99445.09;;;19.09;100.00
64292;BME280;50628;51.008;13.658;2023-07-20T09:06:31;99445.31;;;19.29;100.00
64292;BME280;50628;51.008;13.658;2023-07-20T09:11:35;99446.38;;;19.13;100.00
64292;BME280;50628;51.008;13.658;2023-07-20T09:16:47;99446.63;;;19.18;100.00
64292;BME280;50628;51.008;13.658;2023-07-20T09:21:52;99439.97;;;18.86;100.00
64292;BME280;50628;51.008;13.658;2023-07-20T09:26:53;99453.59;;;18.89;100.00
64292;BME280;50628;51.008;13.658;2023-07-20T09:31:59;99449.06;;;18.83;100.00
64292;BME280;50628;51.008;13.658;2023-07-20T09:37:03;99446.50;;;19.26;100.00
64292;BME280;50628;51.008;13.658;2023-07-20T09:42:06;99441.97;;;19.63;100.00
64292;BME280;50628;51.008;13.658;2023-07-20T09:47:08;99436.50;;;19.64;100.00
64292;BME280;50628;51.008;13.658;2023-07-20T09:52:12;99442.22;;;19.89;100.00
64292;BME280;50628;51.008;13.658;2023-07-20T09:57:15;99438.47;;;19.56;100.00
64292;BME280;50628;51.008;13.658;2023-07-20T10:02:21;99450.34;;;19.66;100.00
64292;BME280;50628;51.008;13.658;2023-07-20T10:07:27;99444.19;;;19.81;100.00
64292;BME280;50628;51.008;13.658;2023-07-20T10:12:30;99439.63;;;20.24;100.00
64292;BME280;50628;51.008;13.658;2023-07-20T10:17:32;99439.31;;;20.69;100.00
64292;BME280;50628;51.008;13.658;2023-07-20T10:22:36;99438.31;;;20.77;100.00
64292;BME280;50628;51.008;13.658;2023-07-20T10:27:40;99432.03;;;20.84;100.00
64292;BME280;50628;51.008;13.658;2023-07-20T10:32:42;99431.72;;;20.24;100.00
64292;BME280;50628;51.008;13.658;2023-07-20T10:37:51;99436.03;;;19.76;100.00
64292;BME280;50628;51.008;13.658;2023-07-20T10:42:57;99433.84;;;20.42;100.00
64292;BME280;50628;51.008;13.658;2023-07-20T10:48:03;99425.41;;;20.60;100.00
64292;BME280;50628;51.008;13.658;2023-07-20T10:53:10;99420.00;;;20.40;100.00
64292;BME280;50628;51.008;13.658;2023-07-20T10:58:13;99416.84;;;20.23;100.00
64292;BME280;50628;51.008;13.658;2023-07-20T11:03:26;99438.34;;;19.21;100.00
64292;BME280;50628;51.008;13.658;2023-07-20T11:08:42;99445.69;;;19.26;100.00
64292;BME280;50628;51.008;13.658;2023-07-20T11:13:54;99454.88;;;19.15;100.00
64292;BME280;50628;51.008;13.658;2023-07-20T11:18:56;99448.53;;;19.09;100.00
64292;BME280;50628;51.008;13.658;2023-07-20T11:24:03;99445.38;;;19.35;100.00
64292;BME280;50628;51.008;13.658;2023-07-20T11:29:05;99445.91;;;19.45;100.00
64292;BME280;50628;51.008;13.658;2023-07-20T11:34:09;99442.13;;;19.76;100.00
64292;BME280;50628;51.008;13.658;2023-07-20T11:39:14;99444.72;;;20.26;100.00
64292;BME280;50628;51.008;13.658;2023-07-20T11:44:17;99432.94;;;20.00;100.00
64292;BME280;50628;51.008;13.658;2023-07-20T11:49:18;99429.59;;;19.63;100.00
64292;BME280;50628;51.008;13.658;2023-07-20T11:54:22;99431.81;;;20.09;100.00
64292;BME280;50628;51.008;13.658;2023-07-20T11:59:24;99424.75;;;20.17;100.00
64292;BME280;50628;51.008;13.658;2023-07-20T12:04:26;99435.81;;;19.99;100.00
64292;BME280;50628;51.008;13.658;2023-07-20T12:09:30;99441.78;;;19.64;100.00
64292;BME280;50628;51.008;13.658;2023-07-20T12:14:33;99440.75;;;19.01;100.00
64292;BME280;50628;51.008;13.658;2023-07-20T12:19:38;99469.38;;;18.59;100.00
64292;BME280;50628;51.008;13.658;2023-07-20T12:24:41;99483.44;;;18.07;100.00
64292;BME280;50628;51.008;13.658;2023-07-20T12:29:43;99490.78;;;18.50;100.00
64292;BME280;50628;51.008;13.658;2023-07-20T12:34:47;99507.56;;;18.64;100.00
64292;BME280;50628;51.008;13.658;2023-07-20T12:39:50;99503.94;;;18.35;100.00
64292;BME280;50628;51.008;13.658;2023-07-20T12:44:52;99529.69;;;17.79;100.00
64292;BME280;50628;51.008;13.658;2023-07-20T12:49:54;99551.50;;;17.41;100.00
64292;BME280;50628;51.008;13.658;2023-07-20T12:54:57;99565.09;;;17.14;100.00
64292;BME280;50628;51.008;13.658;2023-07-20T13:00:00;99532.69;;;17.21;100.00
64292;BME280;50628;51.008;13.658;2023-07-20T13:05:04;99531.78;;;17.37;100.00
64292;BME280;50628;51.008;13.658;2023-07-20T13:10:08;99521.44;;;17.59;100.00
64292;BME280;50628;51.008;13.658;2023-07-20T13:15:11;99498.94;;;17.79;100.00
64292;BME280;50628;51.008;13.658;2023-07-20T13:20:12;99499.59;;;17.81;100.00
64292;BME280;50628;51.008;13.658;2023-07-20T13:25:16;99487.22;;;17.90;100.00
64292;BME280;50628;51.008;13.658;2023-07-20T13:30:19;99482.59;;;17.92;100.00
64292;BME280;50628;51.008;13.658;2023-07-20T13:35:22;99477.97;;;18.09;100.00
64292;BME280;50628;51.008;13.658;2023-07-20T13:40:25;99470.63;;;18.04;100.00
64292;BME280;50628;51.008;13.658;2023-07-20T13:45:27;99466.09;;;18.13;100.00
64292;BME280;50628;51.008;13.658;2023-07-20T13:50:29;99469.00;;;18.18;100.00
64292;BME280;50628;51.008;13.658;2023-07-20T13:55:32;99469.19;;;18.31;100.00
64292;BME280;50628;51.008;13.658;2023-07-20T14:00:37;99475.13;;;18.48;100.00
64292;BME280;50628;51.008;13.658;2023-07-20T14:05:39;99469.41;;;18.45;100.00
64292;BME280;50628;51.008;13.658;2023-07-20T14:10:43;99481.03;;;18.50;100.00
64292;BME280;50628;51.008;13.658;2023-07-20T14:15:45;99477.78;;;18.78;100.00
64292;BME280;50628;51.008;13.658;2023-07-20T14:20:46;99474.91;;;19.09;100.00
64292;BME280;50628;51.008;13.658;2023-07-20T14:25:50;99475.53;;;19.26;100.00
64292;BME280;50628;51.008;13.658;2023-07-20T14:30:51;99482.59;;;19.62;100.00
64292;BME280;50628;51.008;13.658;2023-07-20T14:35:54;99482.53;;;20.89;100.00
64292;BME280;50628;51.008;13.658;2023-07-20T14:40:57;99480.38;;;20.37;100.00
64292;BME280;50628;51.008;13.658;2023-07-20T14:46:00;99488.19;;;20.51;100.00
64292;BME280;50628;51.008;13.658;2023-07-20T14:51:02;99475.81;;;21.61;100.00
64292;BME280;50628;51.008;13.658;2023-07-20T14:56:06;99459.34;;;22.26;100.00
64292;BME280;50628;51.008;13.658;2023-07-20T15:01:08;99452.53;;;22.57;100.00
64292;BME280;50628;51.008;13.658;2023-07-20T15:06:10;99454.03;;;22.91;100.00
64292;BME280;50628;51.008;13.658;2023-07-20T15:11:14;99437.22;;;23.49;100.00
64292;BME280;50628;51.008;13.658;2023-07-20T15:16:16;99445.97;;;23.18;95.55
64292;BME280;50628;51.008;13.658;2023-07-20T15:21:17;99437.00;;;23.19;99.26
64292;BME280;50628;51.008;13.658;2023-07-20T15:26:21;99435.22;;;23.69;96.68
64292;BME280;50628;51.008;13.658;2023-07-20T15:31:23;99443.44;;;22.33;100.00
64292;BME280;50628;51.008;13.658;2023-07-20T15:36:26;99431.69;;;22.67;100.00
64292;BME280;50628;51.008;13.658;2023-07-20T15:41:29;99432.44;;;23.58;94.76
64292;BME280;50628;51.008;13.658;2023-07-20T15:46:45;99430.31;;;23.03;91.55
64292;BME280;50628;51.008;13.658;2023-07-20T15:51:48;99433.16;;;22.50;95.08
64292;BME280;50628;51.008;13.658;2023-07-20T15:56:51;99414.41;;;23.35;92.04
64292;BME280;50628;51.008;13.658;2023-07-20T16:01:54;99421.31;;;23.67;85.90
64292;BME280;50628;51.008;13.658;2023-07-20T16:06:55;99421.09;;;23.44;85.60
64292;BME280;50628;51.008;13.658;2023-07-20T16:11:59;99433.50;;;22.73;86.91
64292;BME280;50628;51.008;13.658;2023-07-20T16:17:01;99436.28;;;22.33;91.37
64292;BME280;50628;51.008;13.658;2023-07-20T16:22:03;99431.81;;;21.94;93.54
64292;BME280;50628;51.008;13.658;2023-07-20T16:27:07;99432.03;;;21.79;91.61
64292;BME280;50628;51.008;13.658;2023-07-20T16:32:09;99433.84;;;21.58;93.40
64292;BME280;50628;51.008;13.658;2023-07-20T16:37:11;99436.00;;;21.22;94.69
64292;BME280;50628;51.008;13.658;2023-07-20T16:42:14;99423.53;;;21.09;97.84
64292;BME280;50628;51.008;13.658;2023-07-20T16:47:16;99427.59;;;20.98;98.00
64292;BME280;50628;51.008;13.658;2023-07-20T16:52:18;99418.41;;;20.94;97.42
64292;BME280;50628;51.008;13.658;2023-07-20T16:57:21;99408.38;;;20.69;100.00
64292;BME280;50628;51.008;13.658;2023-07-20T17:02:23;99416.72;;;20.73;100.00
64292;BME280;50628;51.008;13.658;2023-07-20T17:07:25;99418.75;;;20.71;95.81
64292;BME280;50628;51.008;13.658;2023-07-20T17:12:29;99431.38;;;20.69;94.59
64292;BME280;50628;51.008;13.658;2023-07-20T17:17:31;99420.53;;;20.57;92.17
64292;BME280;50628;51.008;13.658;2023-07-20T17:22:33;99417.13;;;20.35;94.04
64292;BME280;50628;51.008;13.658;2023-07-20T17:27:36;99413.16;;;20.18;93.36
64292;BME280;50628;51.008;13.658;2023-07-20T17:32:38;99416.31;;;20.35;95.09
64292;BME280;50628;51.008;13.658;2023-07-20T17:37:39;99413.56;;;20.15;97.80
64292;BME280;50628;51.008;13.658;2023-07-20T17:42:43;99416.38;;;20.13;100.00
64292;BME280;50628;51.008;13.658;2023-07-20T17:47:45;99409.38;;;19.99;100.00
64292;BME280;50628;51.008;13.658;2023-07-20T17:52:47;99409.34;;;19.92;100.00
64292;BME280;50628;51.008;13.658;2023-07-20T17:57:50;99407.88;;;19.89;100.00
64292;BME280;50628;51.008;13.658;2023-07-20T18:02:52;99399.56;;;19.86;100.00
64292;BME280;50628;51.008;13.658;2023-07-20T18:07:54;99395.00;;;19.73;100.00
64292;BME280;50628;51.008;13.658;2023-07-20T18:12:58;99396.47;;;19.61;100.00
64292;BME280;50628;51.008;13.658;2023-07-20T18:17:59;99392.75;;;19.55;100.00
64292;BME280;50628;51.008;13.658;2023-07-20T18:23:01;99398.63;;;19.51;100.00
64292;BME280;50628;51.008;13.658;2023-07-20T18:28:06;99392.66;;;19.42;100.00
64292;BME280;50628;51.008;13.658;2023-07-20T18:33:07;99387.44;;;19.27;100.00
64292;BME280;50628;51.008;13.658;2023-07-20T18:38:10;99391.72;;;19.28;100.00
64292;BME280;50628;51.008;13.658;2023-07-20T18:43:14;99388.84;;;19.23;100.00
64292;BME280;50628;51.008;13.658;2023-07-20T18:48:17;99396.84;;;19.15;100.00
64292;BME280;50628;51.008;13.658;2023-07-20T18:53:19;99411.66;;;18.94;100.00
64292;BME280;50628;51.008;13.658;2023-07-20T18:58:22;99408.38;;;18.92;100.00
64292;BME280;50628;51.008;13.658;2023-07-20T19:03:24;99399.13;;;18.81;100.00
64292;BME280;50628;51.008;13.658;2023-07-20T19:08:26;99411.41;;;18.59;100.00
64292;BME280;50628;51.008;13.658;2023-07-20T19:13:30;99416.50;;;18.46;100.00
64292;BME280;50628;51.008;13.658;2023-07-20T19:18:32;99421.44;;;18.20;100.00
64292;BME280;50628;51.008;13.658;2023-07-20T19:23:34;99433.13;;;18.02;100.00
64292;BME280;50628;51.008;13.658;2023-07-20T19:28:38;99446.00;;;17.97;100.00
64292;BME280;50628;51.008;13.658;2023-07-20T19:33:40;99455.41;;;17.91;100.00
64292;BME280;50628;51.008;13.658;2023-07-20T19:38:42;99449.63;;;17.73;100.00
64292;BME280;50628;51.008;13.658;2023-07-20T19:43:45;99463.28;;;17.77;100.00
64292;BME280;50628;51.008;13.658;2023-07-20T19:48:47;99452.78;;;17.68;100.00
64292;BME280;50628;51.008;13.658;2023-07-20T19:53:49;99456.78;;;17.64;100.00
64292;BME280;50628;51.008;13.658;2023-07-20T19:58:52;99464.91;;;17.55;100.00
64292;BME280;50628;51.008;13.658;2023-07-20T20:03:54;99464.53;;;17.35;100.00
64292;BME280;50628;51.008;13.658;2023-07-20T20:08:57;99471.06;;;17.16;100.00
64292;BME280;50628;51.008;13.658;2023-07-20T20:14:00;99473.44;;;17.02;100.00
64292;BME280;50628;51.008;13.658;2023-07-20T20:19:02;99473.94;;;16.98;100.00
64292;BME280;50628;51.008;13.658;2023-07-20T20:24:05;99481.88;;;16.90;100.00
64292;BME280;50628;51.008;13.658;2023-07-20T20:29:09;99486.34;;;16.73;100.00
64292;BME280;50628;51.008;13.658;2023-07-20T20:34:10;99486.88;;;16.60;100.00
64292;BME280;50628;51.008;13.658;2023-07-20T20:39:12;99485.09;;;16.52;100.00
64292;BME280;50628;51.008;13.658;2023-07-20T20:44:16;99486.09;;;16.35;100.00
64292;BME280;50628;51.008;13.658;2023-07-20T20:49:22;99487.44;;;16.22;100.00
64292;BME280;50628;51.008;13.658;2023-07-20T20:54:24;99483.00;;;16.15;100.00
64292;BME280;50628;51.008;13.658;2023-07-20T20:59:27;99487.63;;;16.05;100.00
64292;BME280;50628;51.008;13.658;2023-07-20T21:04:29;99487.28;;;15.99;100.00
64292;BME280;50628;51.008;13.658;2023-07-20T21:09:31;99494.69;;;16.04;100.00
64292;BME280;50628;51.008;13.658;2023-07-20T21:14:34;99491.25;;;16.04;100.00
64292;BME280;50628;51.008;13.658;2023-07-20T21:19:36;99496.31;;;15.97;100.00
64292;BME280;50628;51.008;13.658;2023-07-20T21:24:37;99499.44;;;15.84;100.00
64292;BME280;50628;51.008;13.658;2023-07-20T21:29:41;99504.81;;;15.66;100.00
64292;BME280;50628;51.008;13.658;2023-07-20T21:34:42;99504.94;;;15.48;100.00
64292;BME280;50628;51.008;13.658;2023-07-20T21:39:44;99511.66;;;15.51;100.00
64292;BME280;50628;51.008;13.658;2023-07-20T21:44:48;99507.06;;;15.45;100.00
64292;BME280;50628;51.008;13.658;2023-07-20T21:49:49;99512.94;;;15.39;100.00
64292;BME280;50628;51.008;13.658;2023-07-20T21:54:51;99508.56;;;15.47;100.00
64292;BME280;50628;51.008;13.658;2023-07-20T21:59:55;99514.28;;;15.43;100.00
64292;BME280;50628;51.008;13.658;2023-07-20T22:04:57;99500.63;;;15.31;100.00
64292;BME280;50628;51.008;13.658;2023-07-20T22:09:59;99506.41;;;15.43;100.00
64292;BME280;50628;51.008;13.658;2023-07-20T22:15:02;99508.34;;;15.32;100.00
64292;BME280;50628;51.008;13.658;2023-07-20T22:20:06;99502.31;;;15.40;100.00
64292;BME280;50628;51.008;13.658;2023-07-20T22:25:09;99497.69;;;15.34;100.00
64292;BME280;50628;51.008;13.658;2023-07-20T22:30:12;99490.63;;;15.34;100.00
64292;BME280;50628;51.008;13.658;2023-07-20T22:35:15;99491.09;;;15.22;100.00
64292;BME280;50628;51.008;13.658;2023-07-20T22:40:16;99484.72;;;15.24;100.00
64292;BME280;50628;51.008;13.658;2023-07-20T22:45:20;99488.13;;;15.17;100.00
64292;BME280;50628;51.008;13.658;2023-07-20T22:50:22;99487.38;;;15.32;100.00
64292;BME280;50628;51.008;13.658;2023-07-20T22:55:25;99481.63;;;15.29;100.00
64292;BME280;50628;51.008;13.658;2023-07-20T23:00:28;99481.47;;;15.30;100.00
64292;BME280;50628;51.008;13.658;2023-07-20T23:05:31;99487.66;;;15.29;100.00
64292;BME280;50628;51.008;13.658;2023-07-20T23:10:33;99479.47;;;15.24;100.00
64292;BME280;50628;51.008;13.658;2023-07-20T23:15:36;99484.53;;;15.18;100.00
64292;BME280;50628;51.008;13.658;2023-07-20T23:20:39;99486.72;;;15.30;100.00
64292;BME280;50628;51.008;13.658;2023-07-20T23:25:40;99469.16;;;15.31;100.00
64292;BME280;50628;51.008;13.658;2023-07-20T23:30:46;99461.63;;;15.36;100.00
64292;BME280;50628;51.008;13.658;2023-07-20T23:35:49;99470.66;;;15.33;100.00
64292;BME280;50628;51.008;13.658;2023-07-20T23:40:51;99456.88;;;15.31;100.00
64292;BME280;50628;51.008;13.658;2023-07-20T23:45:56;99468.69;;;15.35;100.00
64292;BME280;50628;51.008;13.658;2023-07-20T23:51:04;99456.09;;;15.47;100.00
64292;BME280;50628;51.008;13.658;2023-07-20T23:56:09;99461.84;;;15.51;100.00
